createdAt,value
2017-06-22T00:00:00.184Z,100560
2017-06-22T00:02:27.864Z,100553
2017-06-22T00:04:56.136Z,100553
2017-06-22T00:07:23.450Z,100548
2017-06-22T00:09:51.228Z,100542
2017-06-22T00:12:18.530Z,100535
2017-06-22T00:14:45.826Z,100529
2017-06-22T00:17:13.092Z,100530
2017-06-22T00:19:40.382Z,100529
2017-06-22T00:22:08.045Z,100521
2017-06-22T00:24:35.315Z,100519
2017-06-22T00:27:02.774Z,100522
2017-06-22T00:29:30.050Z,100513
2017-06-22T00:31:57.334Z,100516
2017-06-22T00:34:24.823Z,100511
2017-06-22T00:36:52.108Z,100507
2017-06-22T00:39:19.381Z,100508
2017-06-22T00:41:46.663Z,100496
2017-06-22T00:44:14.359Z,100501
2017-06-22T00:46:41.642Z,100494
2017-06-22T00:49:08.908Z,100497
2017-06-22T00:51:36.180Z,100491
2017-06-22T00:54:03.447Z,100493
2017-06-22T00:56:30.721Z,100496
2017-06-22T00:58:57.989Z,100497
2017-06-22T01:01:25.283Z,100499
2017-06-22T01:03:52.556Z,100493
2017-06-22T01:06:19.836Z,100498
2017-06-22T01:08:47.101Z,100490
2017-06-22T01:11:14.377Z,100489
2017-06-22T01:13:41.645Z,100492
2017-06-22T01:16:08.913Z,100488
2017-06-22T01:18:36.193Z,100481
2017-06-22T01:21:03.464Z,100480
2017-06-22T01:23:30.733Z,100477
2017-06-22T01:25:58.004Z,100475
2017-06-22T01:28:25.291Z,100474
2017-06-22T01:30:52.559Z,100475
2017-06-22T01:33:19.848Z,100472
2017-06-22T01:35:47.116Z,100471
2017-06-22T01:38:14.407Z,100471
2017-06-22T01:40:41.691Z,100474
2017-06-22T01:43:08.982Z,100461
2017-06-22T01:45:36.267Z,100466
2017-06-22T01:48:03.545Z,100469
2017-06-22T01:50:30.835Z,100466
2017-06-22T01:52:58.103Z,100466
2017-06-22T01:55:25.387Z,100463
2017-06-22T01:57:52.848Z,100454
2017-06-22T02:00:20.276Z,100460
2017-06-22T02:02:47.949Z,100462
2017-06-22T02:05:15.220Z,100451
2017-06-22T02:07:42.802Z,100451
2017-06-22T02:10:10.077Z,100444
2017-06-22T02:12:37.367Z,100453
2017-06-22T02:15:04.655Z,100451
2017-06-22T02:17:31.932Z,100457
2017-06-22T02:19:59.200Z,100448
2017-06-22T02:22:26.487Z,100448
2017-06-22T02:24:53.761Z,100442
2017-06-22T02:27:21.042Z,100445
2017-06-22T02:29:48.328Z,100441
2017-06-22T02:32:15.604Z,100438
2017-06-22T02:34:42.871Z,100429
2017-06-22T02:37:10.150Z,100428
2017-06-22T02:39:37.421Z,100438
2017-06-22T02:42:04.706Z,100435
2017-06-22T02:44:32.079Z,100435
2017-06-22T02:46:59.348Z,100437
2017-06-22T02:49:26.643Z,100441
2017-06-22T02:51:53.926Z,100439
2017-06-22T02:54:21.220Z,100432
2017-06-22T02:56:48.503Z,100436
2017-06-22T02:59:15.772Z,100431
2017-06-22T03:01:43.058Z,100431
2017-06-22T03:04:10.508Z,100419
2017-06-22T03:06:37.777Z,100420
2017-06-22T03:09:05.048Z,100424
2017-06-22T03:11:32.317Z,100419
2017-06-22T03:13:59.607Z,100419
2017-06-22T03:16:27.457Z,100417
2017-06-22T03:18:55.139Z,100416
2017-06-22T03:21:22.413Z,100413
2017-06-22T03:23:49.694Z,100413
2017-06-22T03:26:16.955Z,100415
2017-06-22T03:28:44.228Z,100421
2017-06-22T03:31:11.515Z,100416
2017-06-22T03:33:38.806Z,100405
2017-06-22T03:36:06.091Z,100407
2017-06-22T03:38:33.378Z,100403
2017-06-22T03:41:00.655Z,100400
2017-06-22T03:43:28.036Z,100407
2017-06-22T03:45:55.301Z,100401
2017-06-22T03:48:22.591Z,100403
2017-06-22T03:50:49.874Z,100402
2017-06-22T03:53:17.140Z,100394
2017-06-22T03:55:44.409Z,100390
2017-06-22T03:58:11.673Z,100394
2017-06-22T04:00:38.964Z,100398
2017-06-22T04:03:06.250Z,100395
2017-06-22T04:05:33.846Z,100403
2017-06-22T04:08:01.280Z,100404
2017-06-22T04:10:28.945Z,100405
2017-06-22T04:12:56.272Z,100400
2017-06-22T04:15:23.575Z,100401
2017-06-22T04:17:50.860Z,100390
2017-06-22T04:20:18.132Z,100401
2017-06-22T04:22:46.644Z,100397
2017-06-22T04:25:14.308Z,100390
2017-06-22T04:27:41.586Z,100399
2017-06-22T04:30:08.870Z,100389
2017-06-22T04:32:36.141Z,100399
2017-06-22T04:35:03.429Z,100396
2017-06-22T04:37:30.716Z,100400
2017-06-22T04:39:58.263Z,100398
2017-06-22T04:42:25.721Z,100400
2017-06-22T04:44:53.000Z,100393
2017-06-22T04:47:20.279Z,100391
2017-06-22T04:49:47.556Z,100390
2017-06-22T04:52:14.850Z,100397
2017-06-22T04:54:42.120Z,100389
2017-06-22T04:57:09.389Z,100394
2017-06-22T04:59:36.660Z,100395
2017-06-22T05:02:04.324Z,100389
2017-06-22T05:04:31.910Z,100384
2017-06-22T05:06:59.199Z,100384
2017-06-22T05:09:26.464Z,100383
2017-06-22T05:11:53.732Z,100379
2017-06-22T05:14:21.024Z,100370
2017-06-22T05:16:48.338Z,100370
2017-06-22T05:19:15.613Z,100371
2017-06-22T05:21:42.897Z,100365
2017-06-22T05:24:10.169Z,100360
2017-06-22T05:26:37.433Z,100363
2017-06-22T05:29:04.728Z,100360
2017-06-22T05:31:32.010Z,100362
2017-06-22T05:33:59.281Z,100358
2017-06-22T05:36:26.554Z,100367
2017-06-22T05:38:54.129Z,100356
2017-06-22T05:41:21.811Z,100357
2017-06-22T05:43:49.094Z,100355
2017-06-22T05:46:16.384Z,100354
2017-06-22T05:48:43.665Z,100350
2017-06-22T05:51:10.942Z,100346
2017-06-22T05:53:38.216Z,100345
2017-06-22T05:56:05.498Z,100348
2017-06-22T05:58:32.789Z,100345
2017-06-22T06:01:00.091Z,100354
2017-06-22T06:03:27.366Z,100340
2017-06-22T06:05:54.633Z,100349
2017-06-22T06:08:21.919Z,100349
2017-06-22T06:10:49.202Z,100342
2017-06-22T06:13:16.491Z,100339
2017-06-22T06:15:43.775Z,100332
2017-06-22T06:18:11.040Z,100339
2017-06-22T06:20:38.460Z,100337
2017-06-22T06:23:05.733Z,100325
2017-06-22T06:25:33.005Z,100316
2017-06-22T06:28:00.671Z,100319
2017-06-22T06:30:28.228Z,100324
2017-06-22T06:32:55.761Z,100309
2017-06-22T06:35:23.024Z,100309
2017-06-22T06:37:50.300Z,100303
2017-06-22T06:40:17.582Z,100307
2017-06-22T06:42:44.867Z,100307
2017-06-22T06:45:12.147Z,100308
2017-06-22T06:47:39.547Z,100306
2017-06-22T06:50:07.208Z,100300
2017-06-22T06:52:34.473Z,100300
2017-06-22T06:55:02.157Z,100295
2017-06-22T06:57:29.432Z,100295
2017-06-22T06:59:56.703Z,100296
2017-06-22T07:02:23.971Z,100300
2017-06-22T07:04:51.265Z,100297
2017-06-22T07:07:18.551Z,100285
2017-06-22T07:09:45.825Z,100289
2017-06-22T07:12:13.099Z,100288
2017-06-22T07:14:40.391Z,100296
2017-06-22T07:17:07.945Z,100283
2017-06-22T07:19:35.216Z,100299
2017-06-22T07:22:02.489Z,100285
2017-06-22T07:24:29.775Z,100287
2017-06-22T07:26:57.059Z,100287
2017-06-22T07:29:24.352Z,100288
2017-06-22T07:31:51.639Z,100285
2017-06-22T07:34:19.089Z,100285
2017-06-22T07:36:46.762Z,100285
2017-06-22T07:39:14.341Z,100277
2017-06-22T07:41:41.631Z,100280
2017-06-22T07:44:08.900Z,100273
2017-06-22T07:46:36.173Z,100269
2017-06-22T07:49:03.454Z,100271
2017-06-22T07:51:30.729Z,100272
2017-06-22T07:53:57.995Z,100261
2017-06-22T07:56:25.283Z,100264
2017-06-22T07:58:52.955Z,100258
2017-06-22T08:01:20.381Z,100256
2017-06-22T08:03:47.662Z,100263
2017-06-22T08:06:14.933Z,100249
2017-06-22T08:08:42.214Z,100244
2017-06-22T08:11:09.502Z,100242
2017-06-22T08:13:36.792Z,100251
2017-06-22T08:16:04.084Z,100247
2017-06-22T08:18:31.353Z,100246
2017-06-22T08:20:58.648Z,100243
2017-06-22T08:23:25.927Z,100241
2017-06-22T08:25:54.165Z,100235
2017-06-22T08:28:21.956Z,100238
2017-06-22T08:30:49.249Z,100235
2017-06-22T08:33:16.577Z,100234
2017-06-22T08:35:43.867Z,100227
2017-06-22T08:38:11.135Z,100222
2017-06-22T08:40:38.408Z,100218
2017-06-22T08:43:05.768Z,100221
2017-06-22T08:45:33.046Z,100215
2017-06-22T08:48:00.332Z,100218
2017-06-22T08:50:27.600Z,100209
2017-06-22T08:52:54.879Z,100207
2017-06-22T08:55:22.154Z,100211
2017-06-22T08:57:49.439Z,100215
2017-06-22T09:00:16.726Z,100223
2017-06-22T09:02:44.005Z,100214
2017-06-22T09:05:11.285Z,100210
2017-06-22T09:07:38.557Z,100209
2017-06-22T09:10:05.832Z,100205
2017-06-22T09:12:33.106Z,100213
2017-06-22T09:15:00.381Z,100205
2017-06-22T09:17:27.657Z,100198
2017-06-22T09:19:55.067Z,100189
2017-06-22T09:22:22.351Z,100199
2017-06-22T09:24:50.968Z,100200
2017-06-22T09:27:18.632Z,100198
2017-06-22T09:29:46.501Z,100208
2017-06-22T09:32:14.169Z,100207
2017-06-22T09:34:41.459Z,100214
2017-06-22T09:37:08.733Z,100202
2017-06-22T09:39:36.010Z,100200
2017-06-22T09:42:03.281Z,100201
2017-06-22T09:44:30.553Z,100202
2017-06-22T09:46:58.114Z,100209
2017-06-22T09:49:25.394Z,100200
2017-06-22T09:51:52.672Z,100204
2017-06-22T09:54:20.102Z,100203
2017-06-22T09:56:47.364Z,100200
2017-06-22T09:59:14.647Z,100195
2017-06-22T10:01:41.916Z,100195
2017-06-22T10:04:09.199Z,100193
2017-06-22T10:06:36.473Z,100187
2017-06-22T10:09:03.758Z,100185
2017-06-22T10:11:31.028Z,100188
2017-06-22T10:13:58.307Z,100188
2017-06-22T10:16:25.761Z,100182
2017-06-22T10:18:53.074Z,100180
2017-06-22T10:21:20.353Z,100176
2017-06-22T10:23:47.822Z,100172
2017-06-22T10:26:15.115Z,100171
2017-06-22T10:28:42.398Z,100168
2017-06-22T10:31:10.087Z,100162
2017-06-22T10:33:37.370Z,100169
2017-06-22T10:36:04.639Z,100172
2017-06-22T10:38:31.909Z,100163
2017-06-22T10:40:59.181Z,100157
2017-06-22T10:43:26.450Z,100155
2017-06-22T10:45:53.726Z,100159
2017-06-22T10:48:21.015Z,100148
2017-06-22T10:50:48.299Z,100150
2017-06-22T10:53:16.693Z,100129
2017-06-22T10:55:43.970Z,100138
2017-06-22T10:58:11.303Z,100133
2017-06-22T11:00:38.756Z,100132
2017-06-22T11:03:06.028Z,100138
2017-06-22T11:05:33.314Z,100131
2017-06-22T11:08:00.589Z,100125
2017-06-22T11:10:27.857Z,100120
2017-06-22T11:12:55.128Z,100114
2017-06-22T11:15:22.397Z,100126
2017-06-22T11:17:49.695Z,100119
2017-06-22T11:20:17.356Z,100118
2017-06-22T11:22:44.630Z,100125
2017-06-22T11:25:11.919Z,100109
2017-06-22T11:27:39.193Z,100107
2017-06-22T11:30:06.486Z,100113
2017-06-22T11:32:33.760Z,100114
2017-06-22T11:35:01.032Z,100116
2017-06-22T11:37:28.309Z,100112
2017-06-22T11:39:55.577Z,100109
2017-06-22T11:42:23.241Z,100102
2017-06-22T11:44:50.508Z,100105
2017-06-22T11:47:17.795Z,100105
2017-06-22T11:49:45.082Z,100094
2017-06-22T11:52:12.356Z,100095
2017-06-22T11:54:39.643Z,100093
2017-06-22T11:57:06.907Z,100098
2017-06-22T11:59:34.177Z,100092
2017-06-22T12:02:01.462Z,100083
2017-06-22T12:04:29.133Z,100077
2017-06-22T12:06:56.708Z,100085
2017-06-22T12:09:23.976Z,100082
2017-06-22T12:11:51.258Z,100084
2017-06-22T12:14:18.551Z,100080
2017-06-22T12:16:45.839Z,100085
2017-06-22T12:19:13.132Z,100069
2017-06-22T12:21:42.064Z,100083
2017-06-22T12:24:09.356Z,100082
2017-06-22T12:26:36.632Z,100064
2017-06-22T12:29:03.914Z,100070
2017-06-22T12:31:31.199Z,100061
2017-06-22T12:33:58.486Z,100064
2017-06-22T12:36:25.820Z,100057
2017-06-22T12:38:53.089Z,100057
2017-06-22T12:41:20.488Z,100050
2017-06-22T12:43:47.764Z,100045
2017-06-22T12:46:15.114Z,100039
2017-06-22T12:48:42.394Z,100036
2017-06-22T12:51:09.664Z,100034
2017-06-22T12:53:36.956Z,100024
2017-06-22T12:56:04.244Z,100026
2017-06-22T12:58:31.532Z,100027
2017-06-22T13:00:58.810Z,100014
2017-06-22T13:03:26.359Z,100018
2017-06-22T13:05:54.099Z,100009
2017-06-22T13:08:21.369Z,100002
2017-06-22T13:10:48.640Z,100010
2017-06-22T13:13:15.917Z,100001
2017-06-22T13:15:43.183Z,99998
2017-06-22T13:18:10.466Z,99992
2017-06-22T13:20:37.728Z,99990
2017-06-22T13:23:04.996Z,99988
2017-06-22T13:25:32.283Z,99980
2017-06-22T13:27:59.571Z,99982
2017-06-22T13:30:26.836Z,99989
2017-06-22T13:32:54.110Z,99979
2017-06-22T13:35:21.394Z,99978
2017-06-22T13:37:48.719Z,99977
2017-06-22T13:40:16.018Z,99988
2017-06-22T13:42:43.307Z,99980
2017-06-22T13:45:10.586Z,99977
2017-06-22T13:47:37.853Z,99978
2017-06-22T13:50:05.125Z,99974
2017-06-22T13:52:32.411Z,99965
2017-06-22T13:54:59.700Z,99952
2017-06-22T13:57:27.068Z,99944
2017-06-22T13:59:54.339Z,99944
2017-06-22T14:02:21.966Z,99942
2017-06-22T14:04:49.246Z,99942
2017-06-22T14:07:16.515Z,99942
2017-06-22T14:09:43.802Z,99948
2017-06-22T14:12:11.090Z,99951
2017-06-22T14:14:38.352Z,99950
2017-06-22T14:17:05.805Z,99947
2017-06-22T14:19:33.091Z,99946
2017-06-22T14:22:00.360Z,99938
2017-06-22T14:24:27.644Z,99936
2017-06-22T14:26:54.912Z,99933
2017-06-22T14:29:22.204Z,99929
2017-06-22T14:31:49.487Z,99920
2017-06-22T14:34:16.764Z,99916
2017-06-22T14:36:44.052Z,99913
2017-06-22T14:39:11.334Z,99894
2017-06-22T14:41:38.603Z,99891
2017-06-22T14:44:05.898Z,99897
2017-06-22T14:46:33.177Z,99892
2017-06-22T14:49:00.872Z,99885
2017-06-22T14:51:28.536Z,99878
2017-06-22T14:53:55.812Z,99880
2017-06-22T14:56:23.089Z,99872
2017-06-22T14:58:50.358Z,99871
2017-06-22T15:01:17.644Z,99862
2017-06-22T15:03:44.913Z,99868
2017-06-22T15:06:12.386Z,99851
2017-06-22T15:08:39.671Z,99851
2017-06-22T15:11:08.296Z,99854
2017-06-22T15:13:35.976Z,99834
2017-06-22T15:16:03.243Z,99829
2017-06-22T15:18:30.515Z,99823
2017-06-22T15:20:57.849Z,99841
2017-06-22T15:23:25.120Z,99829
2017-06-22T15:25:52.406Z,99822
2017-06-22T15:28:19.671Z,99808
2017-06-22T15:30:46.945Z,99819
2017-06-22T15:33:14.231Z,99818
2017-06-22T15:35:41.520Z,99822
2017-06-22T15:38:08.846Z,99828
2017-06-22T15:40:36.131Z,99833
2017-06-22T15:43:03.517Z,99831
2017-06-22T15:45:30.804Z,99832
2017-06-22T15:47:58.088Z,99834
2017-06-22T15:50:25.371Z,99830
2017-06-22T15:52:52.632Z,99826
2017-06-22T15:55:20.218Z,99839
2017-06-22T15:57:47.489Z,99832
2017-06-22T16:00:14.779Z,99831
2017-06-22T16:02:42.063Z,99835
2017-06-22T16:05:09.337Z,99831
2017-06-22T16:07:36.618Z,99832
2017-06-22T16:10:03.885Z,99834
2017-06-22T16:12:31.548Z,99818
2017-06-22T16:14:58.832Z,99826
2017-06-22T16:17:26.097Z,99806
2017-06-22T16:19:53.847Z,99800
2017-06-22T16:22:21.357Z,99788
2017-06-22T16:24:48.660Z,99785
2017-06-22T16:27:15.942Z,99784
2017-06-22T16:29:43.216Z,99774
2017-06-22T16:32:10.483Z,99770
2017-06-22T16:34:38.199Z,99777
2017-06-22T16:37:05.551Z,99777
2017-06-22T16:39:32.829Z,99767
2017-06-22T16:42:00.105Z,99769
2017-06-22T16:44:28.011Z,99826
2017-06-22T16:46:56.696Z,99889
2017-06-22T16:49:23.984Z,99979
2017-06-22T16:51:51.262Z,99969
2017-06-22T16:54:18.528Z,99942
2017-06-22T16:56:45.797Z,99939
2017-06-22T16:59:13.083Z,99895
2017-06-22T17:01:40.366Z,99882
2017-06-22T17:04:07.637Z,99882
2017-06-22T17:06:35.306Z,99875
2017-06-22T17:09:02.583Z,99880
2017-06-22T17:11:29.859Z,99868
2017-06-22T17:13:57.143Z,99887
2017-06-22T17:16:24.426Z,99892
2017-06-22T17:18:51.707Z,99893
2017-06-22T17:21:18.969Z,99890
2017-06-22T17:23:46.236Z,99905
2017-06-22T17:26:13.519Z,99911
2017-06-22T17:28:41.223Z,99920
2017-06-22T17:31:08.499Z,99921
2017-06-22T17:33:35.775Z,99920
2017-06-22T17:36:03.045Z,99909
2017-06-22T17:38:30.724Z,99897
2017-06-22T17:40:58.016Z,99907
2017-06-22T17:43:25.276Z,99907
2017-06-22T17:45:52.892Z,99916
2017-06-22T17:48:20.184Z,99911
2017-06-22T17:50:47.479Z,99936
2017-06-22T17:53:15.164Z,99963
2017-06-22T17:55:42.336Z,99977
2017-06-22T17:58:09.617Z,99995
2017-06-22T18:00:37.036Z,99990
2017-06-22T18:03:04.316Z,99976
2017-06-22T18:05:31.605Z,99983
2017-06-22T18:07:59.291Z,99981
2017-06-22T18:10:26.557Z,99982
2017-06-22T18:12:53.821Z,99975
2017-06-22T18:15:21.096Z,99975
2017-06-22T18:17:48.616Z,99987
2017-06-22T18:20:15.994Z,100001
2017-06-22T18:22:43.445Z,100006
2017-06-22T18:25:10.733Z,100001
2017-06-22T18:27:38.401Z,100004
2017-06-22T18:30:07.043Z,100006
2017-06-22T18:32:34.357Z,99994
2017-06-22T18:35:02.284Z,100002
2017-06-22T18:37:29.809Z,100008
2017-06-22T18:39:57.095Z,100007
2017-06-22T18:42:24.978Z,100022
2017-06-22T18:44:53.411Z,100022
2017-06-22T18:47:20.868Z,100016
2017-06-22T18:49:48.323Z,100025
2017-06-22T18:52:16.599Z,100035
2017-06-22T18:54:44.396Z,100037
2017-06-22T18:57:11.696Z,100048
2017-06-22T18:59:39.380Z,100045
2017-06-22T19:02:07.496Z,100046
2017-06-22T19:04:35.222Z,100059
2017-06-22T19:07:03.600Z,100070
2017-06-22T19:09:31.208Z,100062
2017-06-22T19:12:00.397Z,100073
2017-06-22T19:14:28.120Z,100079
2017-06-22T19:16:56.862Z,100090
2017-06-22T19:19:24.570Z,100105
2017-06-22T19:21:53.197Z,100115
2017-06-22T19:24:21.273Z,100128
2017-06-22T19:26:48.583Z,100125
2017-06-22T19:29:16.397Z,100135
2017-06-22T19:31:45.233Z,100147
2017-06-22T19:34:12.999Z,100176
2017-06-22T19:36:40.763Z,100172
2017-06-22T19:39:08.832Z,100183
2017-06-22T19:41:37.342Z,100190
2017-06-22T19:44:04.667Z,100187
2017-06-22T19:46:32.423Z,100199
2017-06-22T19:48:59.894Z,100204
2017-06-22T19:51:27.177Z,100202
2017-06-22T19:53:55.064Z,100205
2017-06-22T19:56:22.454Z,100218
2017-06-22T19:58:49.792Z,100217
2017-06-22T20:01:17.082Z,100218
2017-06-22T20:03:44.348Z,100221
2017-06-22T20:06:11.640Z,100226
2017-06-22T20:08:39.154Z,100237
2017-06-22T20:11:06.447Z,100240
2017-06-22T20:13:34.088Z,100235
2017-06-22T20:16:01.380Z,100245
2017-06-22T20:18:28.764Z,100241
2017-06-22T20:20:56.040Z,100250
2017-06-22T20:23:23.699Z,100259
2017-06-22T20:25:50.977Z,100262
2017-06-22T20:28:18.248Z,100259
2017-06-22T20:30:45.940Z,100259
2017-06-22T20:33:13.239Z,100264
2017-06-22T20:35:40.728Z,100274
2017-06-22T20:38:08.028Z,100271
2017-06-22T20:40:35.315Z,100270
2017-06-22T20:43:02.594Z,100269
2017-06-22T20:45:29.877Z,100263
2017-06-22T20:47:58.719Z,100268
2017-06-22T20:50:26.074Z,100264
2017-06-22T20:52:53.782Z,100269
2017-06-22T20:55:21.132Z,100264
2017-06-22T20:57:48.427Z,100262
2017-06-22T21:00:15.725Z,100264
2017-06-22T21:02:43.847Z,100270
2017-06-22T21:05:11.367Z,100272
2017-06-22T21:07:40.636Z,100266
2017-06-22T21:10:08.844Z,100269
2017-06-22T21:12:36.146Z,100262
2017-06-22T21:15:03.769Z,100270
2017-06-22T21:17:31.064Z,100276
2017-06-22T21:19:58.361Z,100275
2017-06-22T21:22:25.531Z,100271
2017-06-22T21:24:53.468Z,100271
2017-06-22T21:27:20.770Z,100277
2017-06-22T21:29:48.962Z,100270
2017-06-22T21:32:17.341Z,100280
2017-06-22T21:34:45.387Z,100279
2017-06-22T21:37:13.040Z,100279
2017-06-22T21:39:41.751Z,100291
2017-06-22T21:42:09.028Z,100301
2017-06-22T21:44:37.019Z,100310
2017-06-22T21:47:04.302Z,100308
2017-06-22T21:49:32.688Z,100312
2017-06-22T21:52:02.002Z,100320
2017-06-22T21:54:32.725Z,100320
2017-06-22T21:57:02.131Z,100330
2017-06-22T21:59:31.899Z,100345
2017-06-22T22:02:01.442Z,100336
2017-06-22T22:04:29.109Z,100345
2017-06-22T22:06:56.436Z,100344
2017-06-22T22:09:23.714Z,100339
2017-06-22T22:11:51.000Z,100345
2017-06-22T22:14:18.544Z,100349
2017-06-22T22:16:45.973Z,100342
2017-06-22T22:19:13.250Z,100351
2017-06-22T22:21:40.520Z,100365
2017-06-22T22:24:07.807Z,100373
2017-06-22T22:26:35.258Z,100378
2017-06-22T22:29:02.543Z,100370
2017-06-22T22:31:29.837Z,100376
2017-06-22T22:33:57.134Z,100373
2017-06-22T22:36:24.427Z,100366
2017-06-22T22:38:51.706Z,100369
2017-06-22T22:41:20.016Z,100369
2017-06-22T22:43:47.292Z,100367
2017-06-22T22:46:14.555Z,100377
2017-06-22T22:48:41.829Z,100369
2017-06-22T22:51:09.097Z,100371
2017-06-22T22:53:36.387Z,100372
2017-06-22T22:56:03.657Z,100366
2017-06-22T22:58:30.947Z,100381
2017-06-22T23:00:58.261Z,100381
2017-06-22T23:03:25.551Z,100392
2017-06-22T23:05:52.978Z,100383
2017-06-22T23:08:20.259Z,100392
2017-06-22T23:10:47.641Z,100396
2017-06-22T23:13:14.917Z,100391
2017-06-22T23:15:42.200Z,100390
2017-06-22T23:18:10.309Z,100394
2017-06-22T23:20:38.006Z,100402
2017-06-22T23:23:05.296Z,100401
2017-06-22T23:25:32.607Z,100406
2017-06-22T23:27:59.889Z,100417
2017-06-22T23:30:28.921Z,100418
2017-06-22T23:32:56.468Z,100423
2017-06-22T23:37:57.367Z,100409
2017-06-22T23:40:24.656Z,100421
2017-06-22T23:42:51.925Z,100419
2017-06-22T23:45:19.210Z,100430
2017-06-22T23:47:46.495Z,100421
2017-06-22T23:50:13.768Z,100423
2017-06-22T23:52:41.055Z,100417
2017-06-22T23:55:08.338Z,100421
2017-06-22T23:57:35.604Z,100427
